createdAt,value
2022-11-27T00:00:28.244Z,3.32
2022-11-27T00:05:52.266Z,3.58
2022-11-27T00:11:17.148Z,3.98
2022-11-27T00:16:43.720Z,3.38
2022-11-27T00:22:07.907Z,3.06
2022-11-27T00:27:33.627Z,3.58
2022-11-27T00:32:54.737Z,3.49
2022-11-27T00:38:18.907Z,3.14
2022-11-27T00:43:45.809Z,3.17
2022-11-27T00:49:10.038Z,3.32
2022-11-27T00:54:37.352Z,3.46
2022-11-27T01:00:02.915Z,3.93
2022-11-27T01:05:28.624Z,3.46
2022-11-27T01:10:54.724Z,3.34
2022-11-27T01:16:17.892Z,4.11
2022-11-27T01:21:40.006Z,3.28
2022-11-27T01:27:04.898Z,3.32
2022-11-27T01:32:30.435Z,3.51
2022-11-27T01:37:53.254Z,3.39
2022-11-27T01:43:19.972Z,3.54
2022-11-27T01:48:53.914Z,3.38
2022-11-27T01:54:20.729Z,3.11
2022-11-27T01:59:45.459Z,3.78
2022-11-27T02:05:12.573Z,3.55
2022-11-27T02:10:34.723Z,3.30
2022-11-27T02:16:04.066Z,3.19
2022-11-27T02:21:31.618Z,3.04
2022-11-27T02:26:57.639Z,3.27
2022-11-27T02:32:44.217Z,3.16
2022-11-27T02:38:07.655Z,3.50
2022-11-27T02:43:31.114Z,3.43
2022-11-27T02:48:53.855Z,3.30
2022-11-27T02:54:16.023Z,2.73
2022-11-27T02:59:40.788Z,3.23
2022-11-27T03:05:05.237Z,3.25
2022-11-27T03:10:26.245Z,2.79
2022-11-27T03:15:51.924Z,3.86
2022-11-27T03:21:17.676Z,3.32
2022-11-27T03:26:43.604Z,3.53
2022-11-27T03:32:04.551Z,3.03
2022-11-27T03:37:30.277Z,3.29
2022-11-27T03:42:55.608Z,3.01
2022-11-27T03:48:21.245Z,2.59
2022-11-27T03:53:48.320Z,2.79
2022-11-27T03:59:13.509Z,2.89
2022-11-27T04:04:38.956Z,2.54
2022-11-27T04:10:03.137Z,3.08
2022-11-27T04:15:28.684Z,2.76
2022-11-27T04:20:54.323Z,2.88
2022-11-27T04:26:17.062Z,2.61
2022-11-27T04:31:40.072Z,2.97
2022-11-27T04:37:06.105Z,2.73
2022-11-27T04:42:29.245Z,3.34
2022-11-27T04:47:53.696Z,2.41
2022-11-27T04:53:17.779Z,2.82
2022-11-27T04:58:44.347Z,2.47
2022-11-27T05:04:11.609Z,3.08
2022-11-27T05:09:33.785Z,3.05
2022-11-27T05:15:03.026Z,2.99
2022-11-27T05:20:24.459Z,2.90
2022-11-27T05:25:50.395Z,3.07
2022-11-27T05:31:14.930Z,3.02
2022-11-27T05:36:39.009Z,3.28
2022-11-27T05:42:05.441Z,3.38
2022-11-27T05:47:31.757Z,3.89
2022-11-27T05:52:55.008Z,4.43
2022-11-27T05:58:22.341Z,4.01
2022-11-27T06:03:49.028Z,4.68
2022-11-27T06:09:13.364Z,4.03
2022-11-27T06:14:36.616Z,5.45
2022-11-27T06:20:02.587Z,4.45
2022-11-27T06:25:28.512Z,4.04
2022-11-27T06:30:52.186Z,4.34
2022-11-27T06:36:16.818Z,3.91
2022-11-27T06:41:39.832Z,4.23
2022-11-27T06:47:02.673Z,5.07
2022-11-27T06:52:23.619Z,4.37
2022-11-27T06:57:45.915Z,5.19
2022-11-27T07:03:11.493Z,5.07
2022-11-27T07:08:33.513Z,4.51
2022-11-27T07:13:58.114Z,4.10
2022-11-27T07:19:22.371Z,4.74
2022-11-27T07:24:48.955Z,6.32
2022-11-27T07:30:15.102Z,5.95
2022-11-27T07:35:41.151Z,6.40
2022-11-27T07:41:07.142Z,6.41
2022-11-27T07:46:32.676Z,6.75
2022-11-27T07:51:59.153Z,6.73
2022-11-27T07:57:22.600Z,7.92
2022-11-27T08:02:45.986Z,7.23
2022-11-27T08:08:12.599Z,7.40
2022-11-27T08:13:37.030Z,7.44
2022-11-27T08:19:03.124Z,7.34
2022-11-27T08:24:29.250Z,7.68
2022-11-27T08:29:52.341Z,7.52
2022-11-27T08:35:17.336Z,6.94
2022-11-27T08:40:44.394Z,6.57
2022-11-27T08:46:15.579Z,7.15
2022-11-27T08:51:40.331Z,7.28
2022-11-27T08:57:06.746Z,7.08
2022-11-27T09:02:28.813Z,8.27
2022-11-27T09:07:51.732Z,7.58
2022-11-27T09:13:18.612Z,7.51
2022-11-27T09:18:44.580Z,7.70
2022-11-27T09:24:09.016Z,6.50
2022-11-27T09:29:31.962Z,7.24
2022-11-27T09:34:55.377Z,8.27
2022-11-27T09:40:20.310Z,7.12
2022-11-27T09:45:42.471Z,8.54
2022-11-27T09:51:08.114Z,8.89
2022-11-27T09:56:31.391Z,8.97
2022-11-27T10:01:56.483Z,8.11
2022-11-27T10:07:23.985Z,7.91
2022-11-27T10:12:53.215Z,7.91
2022-11-27T10:18:14.828Z,8.33
2022-11-27T10:23:40.400Z,8.38
2022-11-27T10:29:08.528Z,8.86
2022-11-27T10:34:33.263Z,7.84
2022-11-27T10:39:56.882Z,8.73
2022-11-27T10:45:22.799Z,9.57
2022-11-27T10:50:48.502Z,8.85
2022-11-27T10:56:10.581Z,9.06
2022-11-27T11:02:04.805Z,9.48
2022-11-27T11:07:43.334Z,9.58
2022-11-27T11:13:11.917Z,9.51
2022-11-27T11:18:37.997Z,9.75
2022-11-27T11:24:00.543Z,9.57
2022-11-27T11:29:30.281Z,9.20
2022-11-27T11:34:59.239Z,9.81
2022-11-27T11:40:21.735Z,8.60
2022-11-27T11:45:45.646Z,8.64
2022-11-27T11:51:10.522Z,7.79
2022-11-27T11:56:33.198Z,8.49
2022-11-27T12:01:59.527Z,7.73
2022-11-27T12:07:33.459Z,8.44
2022-11-27T12:13:06.324Z,7.88
2022-11-27T12:18:32.101Z,8.27
2022-11-27T12:24:01.019Z,8.42
2022-11-27T12:29:32.216Z,8.34
2022-11-27T12:35:04.930Z,8.42
2022-11-27T12:40:47.019Z,8.24
2022-11-27T12:46:20.250Z,8.54
2022-11-27T12:51:46.523Z,7.78
2022-11-27T12:57:14.785Z,7.69
2022-11-27T13:02:36.685Z,7.76
2022-11-27T13:08:05.468Z,7.78
2022-11-27T13:13:28.260Z,7.07
2022-11-27T13:18:54.771Z,7.21
2022-11-27T13:24:19.041Z,7.73
2022-11-27T13:29:42.573Z,7.65
2022-11-27T13:35:09.012Z,7.20
2022-11-27T13:40:36.367Z,7.79
2022-11-27T13:46:04.659Z,8.01
2022-11-27T13:51:31.335Z,8.23
2022-11-27T13:56:56.372Z,7.09
2022-11-27T14:02:30.713Z,8.21
2022-11-27T14:08:06.267Z,7.51
2022-11-27T14:13:42.145Z,9.12
2022-11-27T14:20:05.232Z,8.68
2022-11-27T14:25:46.510Z,8.44
2022-11-27T14:31:08.222Z,8.39
2022-11-27T14:36:38.643Z,7.70
2022-11-27T14:42:05.407Z,7.51
2022-11-27T14:47:35.226Z,7.22
2022-11-27T14:53:01.286Z,8.66
2022-11-27T14:58:29.019Z,7.11
2022-11-27T15:03:52.238Z,7.23
2022-11-27T15:09:31.451Z,7.56
2022-11-27T15:14:42.391Z,7.90
2022-11-27T15:20:04.024Z,7.27
2022-11-27T15:25:29.035Z,7.55
2022-11-27T15:30:53.281Z,7.61
2022-11-27T15:36:16.182Z,10.63
2022-11-27T15:41:43.381Z,9.59
2022-11-27T15:47:09.102Z,9.27
2022-11-27T15:52:40.523Z,8.55
2022-11-27T15:58:07.940Z,8.90
2022-11-27T16:03:38.702Z,9.66
2022-11-27T16:09:03.151Z,8.67
2022-11-27T16:14:27.024Z,10.47
2022-11-27T16:19:50.734Z,10.26
2022-11-27T16:25:17.574Z,8.31
2022-11-27T16:30:40.696Z,8.66
2022-11-27T16:36:05.966Z,7.38
2022-11-27T16:41:29.770Z,7.42
2022-11-27T16:46:52.778Z,7.59
2022-11-27T16:52:16.355Z,7.52
2022-11-27T16:57:41.703Z,7.19
2022-11-27T17:03:08.097Z,9.32
2022-11-27T17:08:32.652Z,8.47
2022-11-27T17:13:58.262Z,9.30
2022-11-27T17:19:21.087Z,9.71
2022-11-27T17:24:44.579Z,9.72
2022-11-27T17:30:11.651Z,9.85
2022-11-27T17:35:34.832Z,9.98
2022-11-27T17:41:00.525Z,11.12
2022-11-27T17:46:24.058Z,10.87
2022-11-27T17:51:46.588Z,9.52
2022-11-27T17:57:13.874Z,7.86
2022-11-27T18:02:36.441Z,8.81
2022-11-27T18:08:02.514Z,8.90
2022-11-27T18:13:28.588Z,8.66
2022-11-27T18:18:52.110Z,9.65
2022-11-27T18:24:24.007Z,9.33
2022-11-27T18:29:44.756Z,9.93
2022-11-27T18:35:09.999Z,10.68
2022-11-27T18:40:34.352Z,10.05
2022-11-27T18:45:58.033Z,9.24
2022-11-27T18:51:21.569Z,8.95
2022-11-27T18:56:46.025Z,9.22
2022-11-27T19:02:11.433Z,9.39
2022-11-27T19:07:35.785Z,8.40
2022-11-27T19:12:56.982Z,8.27
2022-11-27T19:18:18.165Z,8.25
2022-11-27T19:24:41.739Z,9.41
2022-11-27T19:30:02.387Z,8.49
2022-11-27T19:40:51.751Z,7.40
2022-11-27T19:46:16.445Z,8.52
2022-11-27T19:51:39.610Z,8.76
2022-11-27T19:57:06.564Z,7.83
2022-11-27T20:02:29.622Z,8.57
2022-11-27T20:07:51.923Z,8.10
2022-11-27T20:13:14.362Z,8.95
2022-11-27T20:18:41.698Z,8.05
2022-11-27T20:24:05.247Z,8.82
2022-11-27T20:29:31.234Z,8.43
2022-11-27T20:34:54.969Z,8.70
2022-11-27T20:40:17.410Z,8.23
2022-11-27T20:45:41.169Z,8.82
2022-11-27T20:51:08.283Z,8.50
2022-11-27T20:57:29.229Z,11.01
2022-11-27T21:02:50.243Z,8.90
2022-11-27T21:08:15.728Z,9.34
2022-11-27T21:13:41.391Z,9.00
2022-11-27T21:19:04.808Z,9.04
2022-11-27T21:24:28.429Z,8.81
2022-11-27T21:29:54.313Z,9.18
2022-11-27T21:35:17.705Z,9.20
2022-11-27T21:40:45.361Z,8.67
2022-11-27T21:46:11.639Z,8.30
2022-11-27T21:51:35.716Z,8.25
2022-11-27T21:57:05.132Z,8.79
2022-11-27T22:02:32.302Z,8.75
2022-11-27T22:07:56.466Z,7.80
2022-11-27T22:13:22.447Z,7.84
2022-11-27T22:18:48.579Z,9.23
2022-11-27T22:24:18.449Z,8.97
2022-11-27T22:29:39.645Z,8.51
2022-11-27T22:35:06.666Z,8.49
2022-11-27T22:40:32.953Z,7.82
2022-11-27T22:45:56.258Z,8.40
2022-11-27T22:51:23.632Z,8.23
2022-11-27T22:56:47.800Z,8.28
2022-11-27T23:02:15.087Z,8.92
2022-11-27T23:07:38.784Z,8.11
2022-11-27T23:13:04.302Z,7.76
2022-11-27T23:18:29.982Z,8.34
2022-11-27T23:23:52.311Z,8.53
2022-11-27T23:29:15.749Z,8.43
2022-11-27T23:34:38.858Z,7.76
2022-11-27T23:40:05.215Z,8.27
2022-11-27T23:45:29.903Z,8.24
2022-11-27T23:50:56.888Z,8.31
2022-11-27T23:56:22.782Z,8.35
